Terminal Aerodrome Forecast
Issued by NWS Sterling, VA

Current Version | Previous Version | Graphics & Text | Print | Product List | Glossary On
Versions: 1 2 3 4 5 6 7 8 9 10 11 12 13 14 15 16 17 18 19 20 21 22 23 24 25 26
000
FTUS41 KLWX 252320
TAFIAD
TAF
KIAD 252320Z 2600/2706 18005KT P6SM SCT060 BKN070
     FM260200 18006KT P6SM FEW060 SCT070
     FM261400 24010KT P6SM BKN060
     FM261800 24012KT 6SM -SHRA BKN060
     FM270000 29008KT P6SM BKN060
     FM270500 36007KT P6SM BKN060=

USA.gov is the U.S. government's official web portal to all federal, state and local government web resources and services.